Time;durP1;ratioP1;P1;durP2;ratioP2;P2;SDS_P1;SDS_P2;PMS_P1;PMS_P2;Temp;Humidity;BMP_temperature;BMP_pressure;BME280_temperature;BME280_humidity;BME280_pressure;Samples;Min_cycle;Max_cycle;Signal;HPM_P1;HPM_P2
2021/09/16 00:00:13;;;;;;;10.97;7.00;;;17.10;99.90;;;17.94;100.00;97982.84;5093836;28;21031;-80
2021/09/16 00:02:42;;;;;;;13.97;7.60;;;17.00;99.90;;;17.98;100.00;97985.78;5104663;28;20461;-80
2021/09/16 00:05:12;;;;;;;18.27;7.90;;;17.00;99.90;;;17.85;100.00;97980.78;5098853;28;20490;-80
2021/09/16 00:07:41;;;;;;;18.90;7.37;;;16.90;99.90;;;17.86;100.00;97987.69;5106149;28;20442;-80
2021/09/16 00:10:11;;;;;;;15.10;6.80;;;16.80;99.90;;;17.81;100.00;97988.38;5099158;28;20466;-80
2021/09/16 00:12:40;;;;;;;8.00;6.60;;;16.90;99.90;;;17.79;100.00;97982.53;5099698;28;20466;-80
2021/09/16 00:15:12;;;;;;;9.57;7.10;;;16.80;99.90;;;17.82;100.00;97981.25;5098688;28;20494;-80
2021/09/16 00:17:41;;;;;;;14.60;6.70;;;16.80;99.90;;;17.79;100.00;97979.06;5099205;28;20490;-80
2021/09/16 00:20:11;;;;;;;13.13;6.80;;;16.80;99.90;;;17.78;100.00;97980.09;5097582;28;20955;-80
2021/09/16 00:22:40;;;;;;;15.90;7.67;;;16.90;99.90;;;17.76;100.00;97982.19;5097884;28;20908;-81
2021/09/16 00:25:09;;;;;;;18.00;7.60;;;16.90;99.90;;;17.71;100.00;97976.78;5103812;28;20480;-80
2021/09/16 00:27:37;;;;;;;16.20;6.90;;;16.80;99.90;;;17.69;100.00;97987.59;5100411;28;21201;-80
2021/09/16 00:30:09;;;;;;;18.07;7.53;;;16.80;99.90;;;17.65;100.00;97989.09;5098106;28;20509;-80
2021/09/16 00:32:39;;;;;;;11.00;7.30;;;16.70;99.90;;;17.59;100.00;97996.16;5102464;28;20504;-80
2021/09/16 00:35:10;;;;;;;14.87;6.80;;;16.70;99.90;;;17.61;100.00;97993.25;5097653;28;20459;-80
2021/09/16 00:37:38;;;;;;;18.10;8.10;;;16.70;99.90;;;17.64;100.00;97994.63;5104936;28;20531;-80
2021/09/16 00:40:10;;;;;;;9.93;7.43;;;16.70;99.90;;;17.66;100.00;98006.59;5098123;28;20498;-80
2021/09/16 00:42:38;;;;;;;10.97;7.30;;;16.80;99.90;;;17.65;100.00;97999.69;5099164;28;20455;-80
2021/09/16 00:45:10;;;;;;;11.10;7.53;;;16.80;99.90;;;17.68;100.00;98004.50;5102323;28;20478;-80
2021/09/16 00:47:44;;;;;;;10.83;7.40;;;16.80;99.90;;;17.73;100.00;98001.16;5102130;28;20497;-80
2021/09/16 00:50:14;;;;;;;9.50;7.00;;;16.90;99.90;;;17.71;100.00;98008.53;5096960;28;20443;-80
2021/09/16 00:52:43;;;;;;;14.50;7.23;;;16.90;99.90;;;17.69;100.00;98015.91;5102796;28;20436;-81
2021/09/16 00:55:12;;;;;;;12.60;7.77;;;16.80;99.90;;;17.69;100.00;98010.59;5102135;28;20803;-80
2021/09/16 00:57:46;;;;;;;9.37;6.87;;;16.80;99.90;;;17.70;100.00;98017.50;5098350;28;20918;-80
2021/09/16 01:00:18;;;;;;;13.63;8.70;;;16.80;99.90;;;17.71;100.00;98021.75;5097889;28;21026;-80
2021/09/16 01:02:47;;;;;;;13.20;6.50;;;16.90;99.90;;;17.73;100.00;98017.03;5104969;28;20442;-81
2021/09/16 01:05:16;;;;;;;15.17;8.03;;;16.90;99.90;;;17.72;100.00;98020.72;5101492;28;20513;-80
2021/09/16 01:07:44;;;;;;;15.97;6.97;;;17.00;99.90;;;17.70;100.00;98014.88;5100749;28;20458;-81
2021/09/16 01:10:14;;;;;;;10.90;7.70;;;16.90;99.90;;;17.72;100.00;98013.59;5100354;28;21036;-80
2021/09/16 01:12:44;;;;;;;22.73;8.37;;;16.90;99.90;;;17.75;100.00;98021.06;5092534;28;20516;-80
2021/09/16 01:15:15;;;;;;;11.20;7.57;;;16.90;99.90;;;17.71;100.00;98024.38;5098425;28;21004;-80
2021/09/16 01:17:47;;;;;;;11.30;7.20;;;16.90;99.90;;;17.65;100.00;98015.56;5105267;28;20486;-80
2021/09/16 01:20:16;;;;;;;11.70;7.27;;;16.70;99.90;;;17.67;100.00;98017.97;5103823;28;20485;-80
2021/09/16 01:22:46;;;;;;;11.40;7.23;;;16.80;99.90;;;17.66;100.00;98016.38;5100456;28;20492;-80
2021/09/16 01:25:15;;;;;;;9.07;7.77;;;16.80;99.90;;;17.63;100.00;98017.66;5102783;28;20489;-80
2021/09/16 01:27:45;;;;;;;10.63;8.10;;;16.90;99.90;;;17.62;100.00;98015.22;5097813;28;20475;-80
2021/09/16 01:30:14;;;;;;;9.60;7.60;;;16.90;99.90;;;17.63;100.00;98014.19;5098988;27;21023;-80
2021/09/16 01:32:42;;;;;;;14.20;8.27;;;16.90;99.90;;;17.60;100.00;98013.59;5102323;28;20485;-80
2021/09/16 01:35:11;;;;;;;11.27;7.20;;;16.80;99.90;;;17.63;100.00;98016.84;5098150;28;21148;-80
2021/09/16 01:37:40;;;;;;;13.70;8.03;;;16.80;99.90;;;17.63;100.00;98019.47;5099512;27;20556;-80
2021/09/16 01:40:12;;;;;;;13.57;8.30;;;16.80;99.90;;;17.69;100.00;98023.84;5103224;28;20463;-80
2021/09/16 01:42:42;;;;;;;11.27;7.40;;;16.80;99.90;;;17.68;100.00;98020.38;5102115;28;20943;-80
2021/09/16 01:45:15;;;;;;;18.73;7.93;;;16.80;99.90;;;17.66;100.00;98022.47;5097520;28;20539;-80
2021/09/16 01:47:45;;;;;;;14.30;7.83;;;16.70;99.90;;;17.69;100.00;98026.47;5097245;28;21024;-80
2021/09/16 01:50:17;;;;;;;15.57;8.63;;;16.80;99.90;;;17.69;100.00;98027.28;5095565;28;20590;-80
2021/09/16 01:52:47;;;;;;;9.67;8.33;;;16.80;99.90;;;17.68;100.00;98020.38;5101519;28;21165;-80
2021/09/16 01:55:18;;;;;;;12.97;8.60;;;16.80;99.90;;;17.69;100.00;98023.84;5102216;27;20465;-80
2021/09/16 01:57:48;;;;;;;11.70;7.70;;;16.80;99.90;;;17.69;100.00;98026.47;5094693;28;20930;-80
2021/09/16 02:00:17;;;;;;;14.37;7.70;;;16.90;99.90;;;17.71;100.00;98021.75;5099803;28;20487;-80
2021/09/16 02:02:45;;;;;;;10.93;7.20;;;16.80;99.90;;;17.66;100.00;98024.31;5104832;28;20466;-81
2021/09/16 02:05:15;;;;;;;18.27;8.17;;;16.80;99.90;;;17.54;100.00;98029.56;5103390;28;20459;-80
2021/09/16 02:07:43;;;;;;;16.20;6.80;;;16.60;99.90;;;17.56;100.00;98028.31;5104804;28;20451;-80
2021/09/16 02:10:12;;;;;;;20.57;8.10;;;16.70;99.90;;;17.57;100.00;98035.22;5097990;28;20513;-80
2021/09/16 02:12:42;;;;;;;10.67;7.47;;;16.70;99.90;;;17.58;100.00;98028.09;5097095;28;20485;-80
2021/09/16 02:15:11;;;;;;;16.03;7.63;;;16.70;99.90;;;17.62;100.00;98028.44;5098572;28;20459;-80
2021/09/16 02:17:39;;;;;;;24.03;8.50;;;16.70;99.90;;;17.64;100.00;98029.81;5103123;28;20769;-81
2021/09/16 02:20:09;;;;;;;10.23;7.47;;;16.70;99.90;;;17.66;100.00;98029.59;5105035;28;20482;-80
2021/09/16 02:22:38;;;;;;;27.73;8.67;;;16.70;99.90;;;17.65;100.00;98025.31;5099551;28;20454;-80
2021/09/16 02:25:07;;;;;;;20.73;8.20;;;16.70;99.90;;;17.62;100.00;98025.78;5101688;28;20490;-80
2021/09/16 02:27:36;;;;;;;12.23;7.63;;;16.80;99.90;;;17.64;100.00;98021.06;5099126;28;20956;-80
2021/09/16 02:30:07;;;;;;;16.73;8.37;;;16.80;99.90;;;17.60;100.00;98016.25;5102009;28;20466;-80
2021/09/16 02:32:37;;;;;;;17.27;10.20;;;16.80;99.90;;;17.63;100.00;98016.84;5101598;28;20511;-80
2021/09/16 02:35:07;;;;;;;10.60;7.33;;;16.80;99.90;;;17.64;100.00;98029.00;5101883;28;20533;-80
2021/09/16 02:37:36;;;;;;;10.37;7.83;;;16.80;99.90;;;17.66;100.00;98026.94;5102041;27;20482;-80
2021/09/16 02:40:06;;;;;;;9.20;7.63;;;16.80;99.90;;;17.64;100.00;98034.28;5095570;28;20551;-80
2021/09/16 02:42:35;;;;;;;11.17;8.30;;;16.80;99.90;;;17.57;100.00;98029.94;5101299;28;20454;-80
2021/09/16 02:45:08;;;;;;;14.83;7.37;;;16.60;99.90;;;17.59;100.00;98025.25;5101202;28;20559;-80
2021/09/16 02:47:37;;;;;;;10.40;7.60;;;16.70;99.90;;;17.64;100.00;98039.56;5104550;28;20505;-80
2021/09/16 02:50:06;;;;;;;14.27;7.60;;;16.70;99.90;;;17.65;100.00;98033.25;5103439;28;20503;-80
2021/09/16 02:52:35;;;;;;;22.33;8.37;;;16.70;99.90;;;17.67;100.00;98029.34;5102356;28;20450;-80
2021/09/16 02:55:04;;;;;;;12.43;7.53;;;16.80;99.90;;;17.68;100.00;98028.31;5103992;28;20460;-80
2021/09/16 02:57:32;;;;;;;15.13;8.00;;;16.80;99.90;;;17.67;100.00;98039.13;5102470;28;20533;-80
2021/09/16 03:00:01;;;;;;;10.20;8.10;;;16.80;99.90;;;17.66;100.00;98032.22;5097800;28;20497;-80
2021/09/16 03:02:31;;;;;;;12.10;9.00;;;16.70;99.90;;;17.67;100.00;98024.06;5095776;28;20463;-80
2021/09/16 03:05:00;;;;;;;9.37;8.10;;;16.80;99.90;;;17.69;100.00;98027.28;5100040;28;20602;-80
2021/09/16 03:07:28;;;;;;;9.53;7.83;;;16.80;99.90;;;17.70;100.00;98034.16;5098470;28;20460;-80
2021/09/16 03:09:57;;;;;;;8.43;7.47;;;16.80;99.90;;;17.68;100.00;98032.78;5104726;28;20473;-80
2021/09/16 03:12:25;;;;;;;12.00;7.93;;;16.70;99.90;;;17.67;100.00;98025.91;5099727;28;21043;-80
2021/09/16 03:14:53;;;;;;;15.93;6.83;;;16.80;99.90;;;17.66;100.00;98027.75;5099348;27;20494;-80
2021/09/16 03:17:22;;;;;;;14.73;7.10;;;16.80;99.90;;;17.69;100.00;98026.47;5096694;28;20535;-80
2021/09/16 03:19:52;;;;;;;14.00;8.40;;;16.80;99.90;;;17.69;100.00;98026.47;5103972;28;20522;-80
2021/09/16 03:22:20;;;;;;;19.67;9.43;;;16.80;99.90;;;17.68;100.00;98024.84;5099263;28;20538;-80
2021/09/16 03:24:49;;;;;;;15.50;7.30;;;16.70;99.90;;;17.66;100.00;98026.94;5100170;28;20488;-80
2021/09/16 03:27:18;;;;;;;21.17;8.40;;;16.80;99.90;;;17.62;100.00;98028.44;5104466;28;20943;-80
2021/09/16 03:29:46;;;;;;;21.00;10.33;;;16.70;99.90;;;17.64;100.00;98031.66;5103008;27;21015;-80
2021/09/16 03:32:14;;;;;;;13.33;8.20;;;16.70;99.90;;;17.65;100.00;98033.25;5093264;28;20619;-80
2021/09/16 03:34:43;;;;;;;13.40;8.27;;;16.80;99.90;;;17.66;100.00;98040.16;5093346;28;20467;-81
2021/09/16 03:37:13;;;;;;;12.83;8.27;;;16.80;99.90;;;17.66;100.00;98040.97;5102073;28;21035;-80
2021/09/16 03:39:41;;;;;;;22.60;8.43;;;16.80;99.90;;;17.67;100.00;98044.44;5093792;28;20491;-80
2021/09/16 03:42:10;;;;;;;14.90;8.93;;;16.80;99.90;;;17.66;100.00;98040.16;5104676;28;20458;-80
2021/09/16 03:44:39;;;;;;;20.23;7.83;;;16.80;99.90;;;17.67;100.00;98041.78;5098220;28;20497;-80
2021/09/16 03:47:07;;;;;;;18.23;8.20;;;16.90;99.90;;;17.64;100.00;98034.28;5099090;28;20927;-80
2021/09/16 03:49:38;;;;;;;15.70;8.47;;;16.80;99.90;;;17.66;100.00;98034.88;5106012;28;20546;-80
2021/09/16 03:52:08;;;;;;;14.77;8.60;;;16.80;99.90;;;17.63;100.00;98036.16;5096580;28;20858;-80
2021/09/16 03:54:38;;;;;;;17.10;9.17;;;16.80;99.90;;;17.66;100.00;98034.88;5099062;28;20454;-80
2021/09/16 03:57:08;;;;;;;15.50;9.30;;;16.80;99.90;;;17.63;100.00;98028.22;5104678;28;20498;-80
2021/09/16 03:59:36;;;;;;;20.40;8.60;;;16.90;99.90;;;17.62;100.00;98033.72;5106023;28;20526;-80
2021/09/16 04:02:05;;;;;;;27.37;9.60;;;16.80;99.90;;;17.62;100.00;98037.19;5100027;28;20459;-80
2021/09/16 04:04:33;;;;;;;16.10;9.17;;;16.70;99.90;;;17.59;100.00;98041.09;5102063;28;20470;-80
2021/09/16 04:07:02;;;;;;;17.40;8.90;;;16.70;99.90;;;17.59;100.00;98042.94;5103937;28;20513;-80
2021/09/16 04:09:31;;;;;;;19.07;9.67;;;16.70;99.90;;;17.56;100.00;98044.19;5106405;28;20478;-80
2021/09/16 04:12:01;;;;;;;23.20;10.30;;;16.70;99.90;;;17.54;100.00;98048.88;5094740;28;20986;-80
2021/09/16 04:14:29;;;;;;;15.30;10.03;;;16.70;99.90;;;17.49;100.00;98053.25;5096329;28;20536;-80
2021/09/16 04:16:58;;;;;;;16.97;9.87;;;16.70;99.90;;;17.51;100.00;98048.53;5099426;28;20975;-80
2021/09/16 04:19:26;;;;;;;11.17;8.53;;;16.70;99.90;;;17.48;100.00;98052.47;5101226;27;20487;-80
2021/09/16 04:21:55;;;;;;;21.83;8.93;;;16.70;99.90;;;17.48;100.00;98052.47;5104565;28;20517;-80
2021/09/16 04:24:23;;;;;;;14.40;9.73;;;16.70;99.90;;;17.46;100.00;98059.00;5096343;28;20512;-80
2021/09/16 04:26:52;;;;;;;22.77;9.13;;;16.60;99.90;;;17.44;100.00;98061.06;5103790;28;20455;-80
2021/09/16 04:29:21;;;;;;;15.53;9.53;;;16.50;99.90;;;17.45;100.00;98071.44;5102023;28;20523;-80
2021/09/16 04:31:50;;;;;;;14.93;9.73;;;16.60;99.90;;;17.44;100.00;98067.16;5099902;28;20442;-80
2021/09/16 04:34:21;;;;;;;15.90;9.00;;;16.60;99.90;;;17.39;100.00;98066.25;5094440;28;20461;-80
2021/09/16 04:36:51;;;;;;;21.23;9.20;;;16.50;99.90;;;17.37;100.00;98071.75;5098439;28;21035;-80
2021/09/16 04:39:19;;;;;;;15.27;8.13;;;16.50;99.90;;;17.36;100.00;98072.78;5094624;28;20547;-80
2021/09/16 04:41:48;;;;;;;16.43;8.50;;;16.60;99.90;;;17.33;100.00;98070.59;5089603;28;20845;-80
2021/09/16 04:44:17;;;;;;;13.13;9.03;;;16.50;99.90;;;17.36;100.00;98069.34;5101252;28;20475;-80
2021/09/16 04:46:48;;;;;;;16.80;11.63;;;16.50;99.90;;;17.29;100.00;98074.75;5101142;28;20454;-80
2021/09/16 04:49:16;;;;;;;11.07;9.50;;;16.40;99.90;;;17.33;100.00;98077.72;5106159;28;20503;-80
2021/09/16 04:51:45;;;;;;;14.27;7.83;;;16.40;99.90;;;17.29;100.00;98080.03;5102979;28;20495;-80
2021/09/16 04:54:14;;;;;;;11.27;9.27;;;16.40;99.90;;;17.32;100.00;98090.13;5096460;28;20451;-79
2021/09/16 04:56:42;;;;;;;14.27;9.17;;;16.40;99.90;;;17.27;100.00;98095.31;5103950;28;20486;-80
2021/09/16 04:59:11;;;;;;;18.43;8.87;;;16.40;99.90;;;17.28;100.00;98089.00;5102899;28;20556;-80
2021/09/16 05:01:40;;;;;;;19.60;8.60;;;16.40;99.90;;;17.24;100.00;98087.84;5096513;28;20959;-80
2021/09/16 05:04:10;;;;;;;11.00;9.43;;;16.30;99.90;;;17.25;100.00;98093.94;5104619;28;20458;-80
2021/09/16 05:06:38;;;;;;;20.63;9.50;;;16.30;99.90;;;17.21;100.00;98096.25;5102354;28;20466;-80
2021/09/16 05:09:07;;;;;;;10.83;9.10;;;16.30;99.90;;;17.22;100.00;98092.53;5098180;28;20491;-80
2021/09/16 05:11:41;;;;;;;17.10;9.97;;;16.30;99.90;;;17.23;100.00;98102.09;5102925;28;20487;-80
2021/09/16 05:14:11;;;;;;;11.53;9.20;;;16.30;99.90;;;17.19;100.00;98100.13;5104332;28;20451;-80
2021/09/16 05:16:41;;;;;;;17.83;10.47;;;16.30;99.90;;;17.18;100.00;98094.03;5100829;28;20458;-79
2021/09/16 05:19:10;;;;;;;14.07;9.80;;;16.30;99.90;;;17.21;100.00;98098.88;5108671;28;20442;-80
2021/09/16 05:21:39;;;;;;;18.73;10.20;;;16.30;99.90;;;17.19;100.00;98095.66;5102718;28;20548;-80
2021/09/16 05:24:07;;;;;;;12.57;8.90;;;16.30;99.90;;;17.14;100.00;98103.47;5104756;28;20462;-79
2021/09/16 05:26:36;;;;;;;19.00;8.70;;;16.20;99.90;;;17.08;100.00;98099.06;5100995;28;20469;-80
2021/09/16 05:29:04;;;;;;;25.33;10.03;;;16.10;99.90;;;17.05;100.00;98110.09;5106614;28;20518;-80
2021/09/16 05:31:33;;;;;;;12.43;10.00;;;16.10;99.90;;;17.10;100.00;98104.94;5103941;28;20467;-80
2021/09/16 05:34:01;;;;;;;16.30;9.20;;;16.20;99.90;;;17.10;100.00;98104.94;5106696;28;20958;-80
2021/09/16 05:36:31;;;;;;;10.97;9.47;;;16.20;99.90;;;17.04;100.00;98106.63;5102394;27;20516;-80
2021/09/16 05:39:00;;;;;;;14.33;10.77;;;16.20;99.90;;;17.05;100.00;98108.25;5105528;28;20511;-80
2021/09/16 05:41:30;;;;;;;11.60;9.40;;;16.20;99.90;;;17.05;100.00;98110.91;5102440;28;20499;-80
2021/09/16 05:43:58;;;;;;;13.80;9.63;;;16.30;99.90;;;17.00;100.00;98112.63;5101872;28;20462;-80
2021/09/16 05:46:27;;;;;;;13.23;9.67;;;16.10;99.90;;;17.03;100.00;98109.53;5104963;28;20886;-80
2021/09/16 05:48:56;;;;;;;18.00;8.97;;;16.20;99.90;;;17.04;100.00;98113.78;5105964;28;20463;-80
2021/09/16 05:51:24;;;;;;;17.33;7.80;;;16.20;99.90;;;17.05;100.00;98120.66;5102024;28;20837;-80
2021/09/16 05:53:54;;;;;;;15.00;8.93;;;16.20;99.90;;;17.05;100.00;98121.47;5106649;28;20882;-80
2021/09/16 05:56:23;;;;;;;13.80;8.20;;;16.20;99.90;;;17.02;100.00;98123.75;5106400;28;20482;-80
2021/09/16 05:58:51;;;;;;;12.23;8.03;;;16.20;99.90;;;17.01;100.00;98122.13;5101097;27;20458;-80
2021/09/16 06:01:20;;;;;;;11.13;8.40;;;16.20;99.90;;;17.01;100.00;98127.44;5105768;28;20490;-80
2021/09/16 06:03:49;;;;;;;12.90;9.30;;;16.20;99.90;;;17.01;100.00;98130.06;5105868;28;20958;-80
2021/09/16 06:06:17;;;;;;;12.80;7.80;;;16.20;99.90;;;16.95;100.00;98123.88;5102807;28;20464;-80
2021/09/16 06:08:46;;;;;;;11.80;8.17;;;16.20;99.90;;;16.95;100.00;98129.16;5103558;27;20458;-83
2021/09/16 06:11:15;;;;;;;12.00;7.70;;;16.30;99.90;;;16.91;100.00;98127.16;5102893;28;20955;-80
2021/09/16 06:13:44;;;;;;;14.40;8.90;;;16.20;99.90;;;16.92;100.00;98129.59;5098191;28;20466;-80
2021/09/16 06:16:12;;;;;;;10.97;8.10;;;16.20;99.90;;;16.95;100.00;98136.25;5099014;28;20863;-84
2021/09/16 06:18:41;;;;;;;29.00;16.50;;;16.20;99.90;;;16.93;100.00;98138.34;5100041;28;20520;-78
2021/09/16 06:21:10;;;;;;;14.37;8.80;;;16.10;99.90;;;16.92;100.00;98144.63;5103257;28;20494;-79
2021/09/16 06:23:38;;;;;;;14.00;7.27;;;16.10;99.90;;;16.93;100.00;98144.44;5096872;27;20450;-80
2021/09/16 06:26:07;;;;;;;11.90;7.60;;;16.20;99.90;;;16.91;100.00;98145.66;5101501;28;20435;-80
2021/09/16 06:28:37;;;;;;;19.83;8.10;;;16.10;99.90;;;16.90;100.00;98152.78;5107946;28;20443;-79
2021/09/16 06:31:05;;;;;;;9.87;7.17;;;16.20;99.90;;;16.91;100.00;98156.22;5109379;28;20535;-79
2021/09/16 06:33:34;;;;;;;8.70;7.30;;;16.20;99.90;;;16.89;100.00;98160.94;5098701;28;20534;-80
2021/09/16 06:36:03;;;;;;;14.33;7.00;;;16.10;99.90;;;16.87;100.00;98149.81;5095419;28;20463;-80
2021/09/16 06:38:32;;;;;;;16.00;7.53;;;16.00;99.90;;;16.88;100.00;98154.03;5110157;27;20485;-80
2021/09/16 06:41:01;;;;;;;9.20;6.33;;;16.10;99.90;;;16.83;100.00;98152.09;5100690;28;20483;-80
2021/09/16 06:43:30;;;;;;;9.83;7.00;;;16.00;99.90;;;16.79;100.00;98158.84;5098192;28;20493;-80
2021/09/16 06:46:00;;;;;;;12.23;6.10;;;16.00;99.90;;;16.80;100.00;98157.00;5099967;28;20442;-80
2021/09/16 06:48:28;;;;;;;20.70;6.33;;;16.00;99.90;;;16.79;100.00;98153.56;5092973;28;20827;-83
2021/09/16 06:50:57;;;;;;;9.83;6.63;;;16.10;99.90;;;16.78;100.00;98161.69;5098598;28;20947;-80
2021/09/16 06:53:26;;;;;;;14.97;6.87;;;16.00;99.90;;;16.76;100.00;98159.28;5096640;28;20936;-80
2021/09/16 06:55:54;;;;;;;8.60;6.03;;;16.00;99.90;;;16.78;100.00;98165.16;5093976;28;20443;-80
2021/09/16 06:58:23;;;;;;;8.80;6.57;;;16.00;99.90;;;16.82;100.00;98160.22;5101813;28;21480;-80
2021/09/16 07:00:51;;;;;;;11.00;5.87;;;16.00;99.90;;;16.80;100.00;98167.59;5099711;28;20486;-81
2021/09/16 07:03:21;;;;;;;10.00;6.07;;;15.90;99.90;;;16.80;100.00;98159.66;5104264;28;20812;-80
2021/09/16 07:05:50;;;;;;;7.47;5.57;;;15.90;99.90;;;16.82;100.00;98168.97;5099242;28;20451;-80
2021/09/16 07:08:19;;;;;;;7.60;5.13;;;15.90;99.90;;;16.82;100.00;98163.69;5104445;28;20995;-80
2021/09/16 07:10:47;;;;;;;6.53;5.00;;;15.90;99.90;;;16.78;100.00;98173.06;5101043;28;20497;-80
2021/09/16 07:13:16;;;;;;;9.37;5.23;;;15.90;99.90;;;16.81;100.00;98177.09;5092855;28;20501;-81
2021/09/16 07:15:44;;;;;;;6.30;4.80;;;16.00;99.90;;;16.79;100.00;98174.69;5093869;28;20513;-81
2021/09/16 07:18:13;;;;;;;12.83;5.03;;;16.00;99.90;;;16.76;100.00;98191.00;5103030;28;20851;-81
2021/09/16 07:20:43;;;;;;;8.33;5.20;;;16.10;99.90;;;16.77;100.00;98187.28;5101466;28;20573;-81
2021/09/16 07:23:11;;;;;;;6.70;4.83;;;16.00;99.90;;;16.76;100.00;98190.19;5093963;28;20499;-80
2021/09/16 07:25:40;;;;;;;5.83;4.40;;;16.00;99.90;;;16.72;100.00;98189.00;5098796;28;20842;-80
2021/09/16 07:28:08;;;;;;;5.33;4.80;;;16.10;99.90;;;16.70;100.00;98183.94;5097968;28;20443;-80
2021/09/16 07:30:37;;;;;;;7.67;4.20;;;16.10;99.90;;;16.72;100.00;98189.00;5100376;28;20495;-80
2021/09/16 07:33:05;;;;;;;11.40;4.50;;;16.10;99.90;;;16.72;100.00;98191.66;5098690;28;20442;-80
2021/09/16 07:35:34;;;;;;;6.23;4.57;;;16.20;99.90;;;16.73;100.00;98194.03;5096211;28;20471;-80
2021/09/16 07:38:05;;;;;;;8.70;5.00;;;16.10;99.90;;;16.69;100.00;98192.91;5094940;28;20492;-80
2021/09/16 07:40:34;;;;;;;4.93;4.43;;;16.00;99.90;;;16.74;100.00;98193.03;5094866;28;20466;-80
2021/09/16 07:43:03;;;;;;;6.70;4.23;;;16.00;99.90;;;16.77;100.00;98197.06;5096862;28;20474;-79
2021/09/16 07:45:32;;;;;;;5.47;4.50;;;16.10;99.90;;;16.81;100.00;98203.50;5101093;28;20459;-79
2021/09/16 07:48:00;;;;;;;20.30;11.77;;;16.10;99.90;;;16.79;100.00;98210.84;5093528;28;20508;-79
2021/09/16 07:50:29;;;;;;;7.40;4.87;;;16.10;99.90;;;16.79;100.00;98216.94;5099997;27;20471;-79
2021/09/16 07:52:57;;;;;;;6.70;3.80;;;16.10;99.90;;;16.80;100.00;98209.84;5096930;28;20466;-79
2021/09/16 07:55:27;;;;;;;6.53;3.97;;;16.20;99.90;;;16.81;100.00;98217.53;5090403;28;20483;-79
2021/09/16 07:57:56;;;;;;;9.40;4.27;;;16.10;99.90;;;16.84;100.00;98225.00;5101180;28;20486;-80
2021/09/16 08:00:25;;;;;;;4.60;3.90;;;16.10;99.90;;;16.90;100.00;98224.09;5092718;28;20552;-79
2021/09/16 08:02:53;;;;;;;5.83;3.83;;;16.10;99.90;;;16.89;100.00;98222.50;5099376;28;20498;-78
2021/09/16 08:05:22;;;;;;;6.53;4.00;;;16.20;99.90;;;16.87;100.00;98226.41;5098566;28;20539;-79
2021/09/16 08:07:51;;;;;;;6.13;3.10;;;16.30;99.90;;;16.86;100.00;98232.72;5095318;28;20457;-79
2021/09/16 08:10:19;;;;;;;8.27;3.77;;;16.30;99.90;;;16.80;100.00;98238.91;5097748;28;20869;-79
2021/09/16 08:12:49;;;;;;;5.73;3.20;;;16.20;99.90;;;16.81;100.00;98236.00;5095561;28;20503;-78
2021/09/16 08:15:18;;;;;;;7.20;3.07;;;16.10;99.90;;;16.85;100.00;98237.19;5102522;28;20463;-79
2021/09/16 08:17:47;;;;;;;8.50;3.53;;;16.10;99.90;;;16.87;100.00;98244.91;5096110;28;20454;-79
2021/09/16 08:20:16;;;;;;;6.53;3.33;;;16.20;99.90;;;16.84;100.00;98237.41;5104153;28;20462;-78
2021/09/16 08:22:46;;;;;;;9.37;3.70;;;16.30;99.90;;;16.82;100.00;98242.09;5106394;28;20494;-79
2021/09/16 08:25:17;;;;;;;11.40;2.73;;;16.20;99.90;;;16.85;100.00;98244.31;5101488;28;20851;-78
2021/09/16 08:27:46;;;;;;;5.20;2.87;;;16.30;99.90;;;16.89;100.00;98242.84;5105117;28;20482;-79
2021/09/16 08:30:16;;;;;;;4.50;2.83;;;16.30;99.90;;;16.88;100.00;98246.50;5091721;28;20454;-78
2021/09/16 08:32:45;;;;;;;10.37;2.87;;;16.30;99.90;;;16.90;100.00;98249.75;5095190;28;20461;-79
2021/09/16 08:35:14;;;;;;;3.23;2.73;;;16.30;99.90;;;16.86;100.00;98256.50;5095837;28;20463;-79
2021/09/16 08:37:42;;;;;;;4.30;2.83;;;16.30;99.90;;;16.86;100.00;98254.66;5099443;28;20461;-79
2021/09/16 08:40:12;;;;;;;4.00;2.83;;;16.30;99.90;;;16.84;100.00;98254.06;5099811;28;20805;-79
2021/09/16 08:42:45;;;;;;;7.33;4.07;;;16.10;99.90;;;16.82;100.00;98255.31;5108809;28;20494;-79
2021/09/16 08:45:20;;;;;;;3.07;2.60;;;16.00;99.90;;;16.78;100.00;98254.13;5103788;28;20462;-79
2021/09/16 08:47:53;;;;;;;4.23;2.70;;;16.10;99.90;;;16.79;100.00;98264.50;5102717;27;20564;-79
2021/09/16 08:50:25;;;;;;;3.10;2.40;;;16.10;99.90;;;16.81;100.00;98264.25;5108351;28;20792;-79
2021/09/16 08:52:54;;;;;;;4.70;2.10;;;16.20;99.90;;;16.75;100.00;98262.50;5106688;28;21003;-79
2021/09/16 08:55:25;;;;;;;4.17;2.23;;;16.10;99.90;;;16.78;100.00;98254.94;5101023;27;20496;-78
2021/09/16 08:57:58;;;;;;;8.60;2.10;;;16.30;99.90;;;16.80;100.00;98260.03;5106427;28;20994;-79
2021/09/16 09:00:31;;;;;;;4.87;2.10;;;16.20;99.90;;;16.83;100.00;98265.69;5108381;28;20993;-79
2021/09/16 09:03:05;;;;;;;4.23;2.40;;;16.20;99.90;;;16.80;100.00;98265.31;5111899;28;20521;-79
2021/09/16 09:05:34;;;;;;;4.13;2.10;;;16.20;99.90;;;16.84;100.00;98272.53;5106191;28;20453;-79
2021/09/16 09:08:03;;;;;;;3.00;2.23;;;16.20;99.90;;;16.91;100.00;98273.28;5108282;28;20443;-79
2021/09/16 09:10:44;;;;;;;4.83;2.17;;;16.30;99.90;;;16.90;100.00;98265.59;5107161;28;20812;-79
2021/09/16 09:13:16;;;;;;;2.30;2.00;;;16.30;99.90;;;16.90;100.00;98265.59;5093215;28;20482;-79
2021/09/16 09:15:49;;;;;;;5.20;1.93;;;16.40;99.90;;;16.85;100.00;98263.59;5099390;27;21008;-79
2021/09/16 09:18:20;;;;;;;2.80;2.10;;;16.40;99.90;;;16.88;100.00;98267.63;5104687;28;20455;-78
2021/09/16 09:21:05;;;;;;;5.47;2.03;;;16.30;99.90;;;16.97;100.00;98267.09;5109872;28;20442;-78
2021/09/16 09:23:37;;;;;;;3.67;1.87;;;16.30;99.90;;;17.03;100.00;98260.13;5101627;28;20491;-81
2021/09/16 09:26:24;;;;;;;17.77;7.60;;;16.30;99.90;;;17.04;100.00;98262.53;5107615;28;20511;-79
2021/09/16 09:28:57;;;;;;;3.97;2.30;;;16.40;99.90;;;17.05;100.00;98263.34;5108064;28;20482;-79
2021/09/16 09:31:27;;;;;;;3.63;1.83;;;16.40;99.90;;;17.09;100.00;98259.25;5105361;27;20548;-79
2021/09/16 09:33:56;;;;;;;4.33;1.90;;;16.40;99.90;;;17.16;100.00;98259.97;5092061;28;20440;-78
2021/09/16 09:36:24;;;;;;;2.60;1.63;;;16.40;99.90;;;17.17;100.00;98256.28;5104321;28;20467;-79
2021/09/16 09:38:58;;;;;;;8.40;2.67;;;16.50;99.90;;;17.25;100.00;98257.81;5104688;27;20434;-78
2021/09/16 09:41:33;;;;;;;3.20;2.00;;;16.70;99.90;;;17.15;100.00;98258.34;5099865;28;20458;-79
2021/09/16 09:44:10;;;;;;;3.03;2.40;;;16.50;99.90;;;17.23;100.00;98258.03;5099310;28;20497;-79
2021/09/16 09:46:49;;;;;;;4.60;2.30;;;16.50;99.90;;;17.27;100.00;98251.28;5101005;28;20486;-79
2021/09/16 09:49:21;;;;;;;5.03;2.30;;;16.60;99.90;;;17.24;100.00;98257.00;5099336;28;20463;-79
2021/09/16 09:51:53;;;;;;;2.90;2.30;;;16.70;99.90;;;17.27;100.00;98259.22;5098405;28;20475;-79
2021/09/16 09:54:28;;;;;;;11.03;2.23;;;16.60;99.90;;;17.31;100.00;98252.44;5102697;28;20458;-79
2021/09/16 09:57:13;;;;;;;4.93;2.47;;;16.70;99.90;;;17.27;100.00;98261.03;5105805;27;20461;-79
2021/09/16 09:59:58;;;;;;;3.07;2.60;;;16.70;99.90;;;17.28;100.00;98257.38;5107780;28;20450;-79
2021/09/16 10:02:32;;;;;;;3.73;2.53;;;16.70;99.90;;;17.23;100.00;98254.59;5104980;28;20482;-79
2021/09/16 10:05:01;;;;;;;3.30;2.17;;;16.70;99.90;;;17.34;100.00;98253.81;5098775;27;20454;-79
2021/09/16 10:07:37;;;;;;;2.97;2.67;;;16.70;99.90;;;17.33;100.00;98255.66;5105887;27;20447;-79
2021/09/16 10:10:10;;;;;;;3.73;2.50;;;16.80;99.90;;;17.34;100.00;98256.47;5100515;28;20462;-79
2021/09/16 10:12:40;;;;;;;49.77;27.77;;;16.80;99.90;;;17.33;100.00;98274.16;5102453;28;20470;-79
2021/09/16 10:15:12;;;;;;;3.90;2.87;;;16.80;99.90;;;17.38;100.00;98262.94;5100270;28;20919;-79
2021/09/16 10:17:43;;;;;;;2.90;2.60;;;16.80;99.90;;;17.48;100.00;98266.63;5102902;27;20885;-78